Time;durP1;ratioP1;P1;durP2;ratioP2;P2;SDS_P1;SDS_P2;PMS_P1;PMS_P2;Temp;Humidity;BMP_temperature;BMP_pressure;BME280_temperature;BME280_humidity;BME280_pressure;Samples;Min_cycle;Max_cycle;Signal;HPM_P1;HPM_P2
2022/09/11 00:01:14;;;;;;;17.60;14.37;;;15.90;99.90;;;;;;4881491;29;20547;-73
2022/09/11 00:03:41;;;;;;;20.03;16.23;;;16.00;99.90;;;;;;4881304;29;20424;-73
2022/09/11 00:06:11;;;;;;;17.20;14.13;;;15.90;99.90;;;;;;4881489;29;20475;-72
2022/09/11 00:08:37;;;;;;;20.63;15.20;;;15.90;99.90;;;;;;4881825;29;20826;-73
2022/09/11 00:11:07;;;;;;;16.70;14.90;;;15.80;99.90;;;;;;4881697;29;20428;-73
2022/09/11 00:13:33;;;;;;;18.73;16.77;;;15.70;99.90;;;;;;4881490;29;20921;-73
2022/09/11 00:16:01;;;;;;;19.07;16.90;;;15.80;99.90;;;;;;4881198;29;20443;-73
2022/09/11 00:18:29;;;;;;;21.83;17.20;;;15.70;99.90;;;;;;4881715;29;20467;-72
2022/09/11 00:20:56;;;;;;;18.23;16.33;;;15.70;99.90;;;;;;4881783;29;20416;-72
2022/09/11 00:23:24;;;;;;;28.53;18.40;;;15.60;99.90;;;;;;4881658;29;20417;-73
2022/09/11 00:25:50;;;;;;;17.67;15.77;;;15.60;99.90;;;;;;4881202;29;20447;-72
2022/09/11 00:28:24;;;;;;;19.57;16.53;;;15.50;99.90;;;;;;4881491;29;20448;-72
2022/09/11 00:31:17;;;;;;;23.00;17.50;;;15.50;99.90;;;;;;4881415;29;20219;-73
2022/09/11 00:33:43;;;;;;;16.87;15.17;;;15.50;99.90;;;;;;4880457;29;20407;-73
2022/09/11 00:36:14;;;;;;;19.83;16.10;;;15.40;99.90;;;;;;4880982;29;20824;-73
2022/09/11 00:38:41;;;;;;;17.87;15.97;;;15.50;99.90;;;;;;4895506;29;20203;-73
2022/09/11 00:41:12;;;;;;;18.07;16.17;;;15.50;99.90;;;;;;4881291;29;20499;-73
2022/09/11 00:43:58;;;;;;;21.23;16.40;;;15.50;99.90;;;;;;4881253;29;20413;-73
2022/09/11 00:46:30;;;;;;;19.13;16.37;;;15.40;99.90;;;;;;4881248;29;20446;-73
2022/09/11 00:48:58;;;;;;;19.30;17.20;;;15.40;99.90;;;;;;4881138;29;20427;-73
2022/09/11 00:51:27;;;;;;;21.07;16.43;;;15.40;99.90;;;;;;4881055;29;20511;-73
2022/09/11 00:53:55;;;;;;;20.20;17.50;;;15.50;99.90;;;;;;4880447;29;20439;-73
2022/09/11 00:56:26;;;;;;;19.27;16.60;;;15.40;99.90;;;;;;4880864;29;20450;-72
2022/09/11 00:58:53;;;;;;;19.40;17.37;;;15.40;99.90;;;;;;4880876;29;20474;-73
2022/09/11 01:01:19;;;;;;;21.00;15.20;;;15.40;99.90;;;;;;4880788;29;20976;-73
2022/09/11 01:03:45;;;;;;;17.83;14.67;;;15.40;99.90;;;;;;4880502;29;20424;-73
2022/09/11 01:06:11;;;;;;;19.67;16.13;;;15.50;99.90;;;;;;4880361;29;20995;-73
2022/09/11 01:08:36;;;;;;;19.27;17.27;;;15.60;99.90;;;;;;4880817;29;20184;-73
2022/09/11 01:11:30;;;;;;;20.20;16.80;;;15.60;99.90;;;;;;4895017;29;20188;-73
2022/09/11 01:14:04;;;;;;;24.53;18.07;;;15.70;99.90;;;;;;4879187;29;20198;-73
2022/09/11 01:16:48;;;;;;;23.07;19.10;;;15.60;99.90;;;;;;4880650;29;20447;-73
2022/09/11 01:19:44;;;;;;;25.60;19.77;;;15.60;99.90;;;;;;4880631;29;20465;-73
2022/09/11 01:22:44;;;;;;;20.57;17.97;;;15.60;99.90;;;;;;4880528;29;20412;-73
2022/09/11 01:25:27;;;;;;;22.73;20.27;;;15.60;99.90;;;;;;4880307;29;20463;-73
2022/09/11 01:27:59;;;;;;;21.37;19.17;;;15.60;99.90;;;;;;4880256;29;20498;-73
2022/09/11 01:30:37;;;;;;;23.23;19.73;;;15.70;99.90;;;;;;4894659;29;20487;-73
2022/09/11 01:33:24;;;;;;;18.43;16.13;;;15.70;99.90;;;;;;4880675;29;20442;-73
2022/09/11 01:36:01;;;;;;;21.43;18.60;;;15.80;99.90;;;;;;4879966;29;20479;-73
2022/09/11 01:38:55;;;;;;;21.70;18.70;;;15.70;99.90;;;;;;4880366;29;20983;-73
2022/09/11 01:41:44;;;;;;;21.70;17.57;;;15.70;99.90;;;;;;4880173;29;20412;-74
2022/09/11 01:44:28;;;;;;;21.37;18.17;;;15.90;99.90;;;;;;4879824;29;20416;-73
2022/09/11 01:46:54;;;;;;;24.43;18.40;;;15.80;99.90;;;;;;4879992;29;20850;-72
2022/09/11 01:49:24;;;;;;;24.23;19.67;;;15.90;99.90;;;;;;4880006;29;20460;-73
2022/09/11 01:51:56;;;;;;;24.20;19.53;;;16.00;99.90;;;;;;4879935;29;20550;-73
2022/09/11 01:54:28;;;;;;;22.63;18.70;;;16.00;99.90;;;;;;4879494;29;20408;-72
2022/09/11 01:57:00;;;;;;;22.73;20.43;;;16.10;99.90;;;;;;4879943;29;20431;-73
2022/09/11 01:59:32;;;;;;;23.23;20.13;;;16.00;99.90;;;;;;4879755;29;20943;-73
2022/09/11 02:02:05;;;;;;;22.00;18.80;;;16.00;99.90;;;;;;4879854;29;20420;-73
2022/09/11 02:04:40;;;;;;;23.90;21.13;;;15.80;99.90;;;;;;4879448;29;20412;-72
2022/09/11 02:07:38;;;;;;;24.70;20.70;;;15.80;99.90;;;;;;4879729;29;20467;-73
2022/09/11 02:10:16;;;;;;;34.20;20.37;;;15.90;99.90;;;;;;4879725;29;20459;-73
2022/09/11 02:13:06;;;;;;;23.73;20.90;;;15.90;99.90;;;;;;4879725;29;20775;-72
2022/09/11 02:15:57;;;;;;;25.40;21.60;;;16.00;99.90;;;;;;4876117;29;20436;-73
2022/09/11 02:18:27;;;;;;;25.13;22.63;;;16.10;99.90;;;;;;4879120;29;20549;-73
2022/09/11 02:20:52;;;;;;;26.23;21.97;;;16.20;99.90;;;;;;4879562;29;20423;-73
2022/09/11 02:23:19;;;;;;;24.67;21.80;;;16.20;99.90;;;;;;4879642;29;20419;-72
2022/09/11 02:25:45;;;;;;;27.70;22.90;;;16.20;99.90;;;;;;4878826;29;20195;-73
2022/09/11 02:28:11;;;;;;;25.73;22.50;;;16.30;99.90;;;;;;4879434;29;20995;-74
2022/09/11 02:30:38;;;;;;;28.13;23.97;;;16.40;99.90;;;;;;4879433;29;20187;-73
2022/09/11 02:33:04;;;;;;;24.67;21.77;;;16.30;99.90;;;;;;4879611;29;20491;-72
2022/09/11 02:35:42;;;;;;;29.53;23.17;;;16.20;99.90;;;;;;4877933;29;20424;-73
2022/09/11 02:38:16;;;;;;;24.03;21.33;;;16.20;99.90;;;;;;4878288;29;20218;-73
2022/09/11 02:40:54;;;;;;;26.07;22.70;;;16.20;99.90;;;;;;4879386;29;20505;-73
2022/09/11 02:43:48;;;;;;;26.23;23.37;;;16.20;99.90;;;;;;4879438;29;20824;-72
2022/09/11 02:46:22;;;;;;;29.00;24.10;;;16.10;99.90;;;;;;4879410;29;20414;-73
2022/09/11 02:49:02;;;;;;;35.07;22.70;;;16.00;99.90;;;;;;4879342;29;20423;-73
2022/09/11 02:51:58;;;;;;;30.40;24.10;;;15.90;99.90;;;;;;4879534;29;20419;-72
2022/09/11 02:54:52;;;;;;;30.07;25.23;;;15.90;99.90;;;;;;4879027;29;20448;-72
2022/09/11 02:57:35;;;;;;;32.37;24.50;;;15.70;99.90;;;;;;4879266;29;20440;-73
2022/09/11 03:00:05;;;;;;;28.30;25.07;;;15.70;99.90;;;;;;4879303;29;21032;-72
2022/09/11 03:02:33;;;;;;;33.10;25.50;;;15.70;99.90;;;;;;4879130;29;20516;-73
2022/09/11 03:04:59;;;;;;;29.67;25.63;;;15.70;99.90;;;;;;4878786;29;20463;-72
2022/09/11 03:07:24;;;;;;;34.70;27.50;;;15.60;99.90;;;;;;4879008;29;20485;-72
2022/09/11 03:09:51;;;;;;;33.40;28.00;;;15.60;99.90;;;;;;4893435;29;20187;-72
2022/09/11 03:12:17;;;;;;;30.73;26.10;;;15.50;99.90;;;;;;4879104;29;20175;-73
2022/09/11 03:14:42;;;;;;;37.87;27.07;;;15.50;99.90;;;;;;4878714;29;20412;-73
2022/09/11 03:17:08;;;;;;;37.93;28.70;;;15.60;99.90;;;;;;4879161;29;20951;-73
2022/09/11 03:19:34;;;;;;;36.60;26.57;;;15.50;99.90;;;;;;4879060;29;20211;-73
2022/09/11 03:22:01;;;;;;;43.37;28.83;;;15.60;99.90;;;;;;4878000;29;20498;-72
2022/09/11 03:24:27;;;;;;;34.10;28.60;;;15.50;99.90;;;;;;4878937;29;20911;-73
2022/09/11 03:26:53;;;;;;;36.07;28.00;;;15.50;99.90;;;;;;4878828;29;20514;-73
2022/09/11 03:29:19;;;;;;;36.67;27.10;;;15.60;99.90;;;;;;4878824;29;20657;-73
2022/09/11 03:31:45;;;;;;;37.00;29.17;;;15.70;99.90;;;;;;4878921;29;20574;-73
2022/09/11 03:34:11;;;;;;;40.50;31.50;;;15.80;99.90;;;;;;4878618;29;20244;-73
2022/09/11 03:36:36;;;;;;;43.80;31.00;;;15.70;99.90;;;;;;4878922;29;20850;-73
2022/09/11 03:39:02;;;;;;;39.67;30.23;;;15.70;99.90;;;;;;4881832;29;20467;-72
2022/09/11 03:41:28;;;;;;;43.23;30.40;;;15.60;99.90;;;;;;4896298;29;20657;-73
2022/09/11 03:43:54;;;;;;;42.00;31.27;;;15.70;99.90;;;;;;4881815;29;20435;-73
2022/09/11 03:46:19;;;;;;;41.33;32.90;;;15.70;99.90;;;;;;4882319;29;20744;-72
2022/09/11 03:48:45;;;;;;;45.50;31.23;;;15.70;99.90;;;;;;4896687;29;20228;-73
2022/09/11 03:51:11;;;;;;;42.70;31.87;;;15.60;99.90;;;;;;4881906;29;20180;-73
2022/09/11 03:53:37;;;;;;;44.23;30.40;;;15.60;99.90;;;;;;4882087;29;20921;-73
2022/09/11 03:56:03;;;;;;;46.00;32.13;;;15.60;99.90;;;;;;4881671;29;20440;-73
2022/09/11 03:58:29;;;;;;;43.60;31.93;;;15.50;99.90;;;;;;4881932;29;20470;-73
2022/09/11 04:00:55;;;;;;;48.03;32.63;;;15.50;99.90;;;;;;4881861;29;20398;-73
2022/09/11 04:03:20;;;;;;;44.00;30.00;;;15.60;99.90;;;;;;4896242;29;20594;-73
2022/09/11 04:05:58;;;;;;;49.10;32.60;;;15.50;99.90;;;;;;4895750;29;20206;-73
2022/09/11 04:08:24;;;;;;;52.73;34.33;;;15.50;99.90;;;;;;4881887;29;20218;-73
2022/09/11 04:10:58;;;;;;;44.80;32.00;;;15.50;99.90;;;;;;4881734;29;20440;-73
2022/09/11 04:13:28;;;;;;;44.97;31.90;;;15.50;99.90;;;;;;4881665;29;20452;-73
2022/09/11 04:15:58;;;;;;;44.30;32.30;;;15.60;99.90;;;;;;4881243;29;20967;-73
2022/09/11 04:18:23;;;;;;;41.37;33.07;;;15.60;99.90;;;;;;4881543;29;20515;-73
2022/09/11 04:20:49;;;;;;;45.20;33.00;;;15.60;99.90;;;;;;4881587;29;20796;-73
2022/09/11 04:23:14;;;;;;;44.33;32.93;;;15.60;99.90;;;;;;4881304;29;20180;-73
2022/09/11 04:25:40;;;;;;;43.10;34.03;;;15.70;99.90;;;;;;4881007;29;20175;-73
2022/09/11 04:28:05;;;;;;;50.40;33.47;;;15.70;99.90;;;;;;4881437;29;20203;-73
2022/09/11 04:30:34;;;;;;;49.33;34.70;;;15.60;99.90;;;;;;4881574;29;20187;-73
2022/09/11 04:33:01;;;;;;;49.23;33.73;;;15.60;99.90;;;;;;4881596;29;20544;-73
2022/09/11 04:35:26;;;;;;;50.90;36.20;;;15.60;99.90;;;;;;4895122;29;20940;-73
2022/09/11 04:37:52;;;;;;;48.60;33.90;;;15.60;99.90;;;;;;4895852;29;20472;-73
2022/09/11 04:40:17;;;;;;;51.20;35.20;;;15.60;99.90;;;;;;4895761;29;20183;-72
2022/09/11 04:42:43;;;;;;;46.83;32.80;;;15.70;99.90;;;;;;4881228;29;20672;-72
2022/09/11 04:45:09;;;;;;;43.80;31.50;;;15.70;99.90;;;;;;4895265;29;20686;-73
2022/09/11 04:47:34;;;;;;;49.47;33.57;;;15.60;99.90;;;;;;4880527;29;20206;-73
2022/09/11 04:50:01;;;;;;;45.50;33.03;;;15.60;99.90;;;;;;4881012;29;20424;-73
2022/09/11 04:52:26;;;;;;;48.43;34.50;;;15.70;99.90;;;;;;4881201;29;20203;-73
2022/09/11 04:54:52;;;;;;;44.37;33.13;;;15.70;99.90;;;;;;4880765;29;20867;-73
2022/09/11 04:57:17;;;;;;;48.10;33.93;;;15.80;99.90;;;;;;4880771;29;20199;-73
2022/09/11 04:59:43;;;;;;;50.00;34.10;;;15.60;99.90;;;;;;4880702;29;20231;-72
2022/09/11 05:02:08;;;;;;;43.63;32.70;;;15.40;99.90;;;;;;4881000;29;20531;-72
2022/09/11 05:04:34;;;;;;;47.63;34.77;;;15.50;99.90;;;;;;4880559;29;20179;-72
2022/09/11 05:07:00;;;;;;;55.07;35.77;;;15.60;99.90;;;;;;4895030;29;20234;-73
2022/09/11 05:09:26;;;;;;;53.87;35.13;;;15.50;99.90;;;;;;4880715;29;20424;-73
2022/09/11 05:11:52;;;;;;;54.67;36.63;;;15.50;99.90;;;;;;4880496;29;20435;-73
2022/09/11 05:14:17;;;;;;;58.20;39.87;;;15.50;99.90;;;;;;4880285;29;20452;-73
2022/09/11 05:16:44;;;;;;;57.63;37.30;;;15.50;99.90;;;;;;4880589;29;20214;-73
2022/09/11 05:19:10;;;;;;;64.13;36.03;;;15.40;99.90;;;;;;4880699;29;20215;-73
2022/09/11 05:21:36;;;;;;;81.37;40.80;;;15.30;99.90;;;;;;4880785;29;20469;-73
2022/09/11 05:24:02;;;;;;;59.20;38.17;;;15.30;99.90;;;;;;4880263;29;20183;-72
2022/09/11 05:26:30;;;;;;;74.60;40.77;;;15.20;99.90;;;;;;4880445;29;20447;-73
2022/09/11 05:29:06;;;;;;;66.20;39.47;;;15.10;99.90;;;;;;4880290;29;20415;-73
2022/09/11 05:31:32;;;;;;;78.93;35.60;;;15.10;99.90;;;;;;4880535;29;20415;-73
2022/09/11 05:33:59;;;;;;;52.77;34.80;;;15.10;99.90;;;;;;4879857;29;20432;-73
2022/09/11 05:36:25;;;;;;;65.63;37.90;;;15.00;99.90;;;;;;4880188;29;20500;-73
2022/09/11 05:38:51;;;;;;;62.70;36.70;;;15.00;99.90;;;;;;4880004;29;20832;-73
2022/09/11 05:41:17;;;;;;;53.73;34.37;;;15.10;99.90;;;;;;4880293;29;20416;-73
2022/09/11 05:43:43;;;;;;;48.67;32.03;;;15.20;99.90;;;;;;4879972;29;20420;-73
2022/09/11 05:46:12;;;;;;;58.17;34.80;;;15.10;99.90;;;;;;4879716;29;20804;-73
2022/09/11 05:48:38;;;;;;;51.67;34.03;;;15.00;99.90;;;;;;4879933;29;20554;-73
2022/09/11 05:51:11;;;;;;;62.73;34.80;;;15.00;99.90;;;;;;4879887;29;20511;-73
2022/09/11 05:53:37;;;;;;;55.73;33.33;;;15.00;99.90;;;;;;4879954;29;20882;-73
2022/09/11 05:56:29;;;;;;;44.90;33.60;;;15.00;99.90;;;;;;4879646;29;20419;-73
2022/09/11 05:58:56;;;;;;;52.93;31.73;;;14.90;99.90;;;;;;4878590;29;20487;-73
2022/09/11 06:01:27;;;;;;;54.73;34.03;;;14.90;99.90;;;;;;4889117;29;20423;-72
2022/09/11 06:03:53;;;;;;;47.70;32.10;;;14.90;99.90;;;;;;4898080;29;20431;-72
2022/09/11 06:06:21;;;;;;;50.40;33.47;;;14.80;99.90;;;;;;4898165;29;20831;-72
2022/09/11 06:08:48;;;;;;;53.30;34.50;;;14.80;99.90;;;;;;4898378;29;20475;-73
2022/09/11 06:11:16;;;;;;;56.20;34.23;;;14.90;99.90;;;;;;4898195;29;20510;-73
2022/09/11 06:13:45;;;;;;;61.57;34.30;;;14.90;99.90;;;;;;4898348;29;20544;-73
2022/09/11 06:16:16;;;;;;;53.73;35.73;;;14.90;99.90;;;;;;4897838;29;20439;-73
2022/09/11 06:18:41;;;;;;;55.40;33.67;;;14.90;99.90;;;;;;4898226;29;20550;-72
2022/09/11 06:21:10;;;;;;;51.70;33.17;;;14.80;99.90;;;;;;4898285;29;20842;-72
2022/09/11 06:23:38;;;;;;;52.87;32.33;;;14.90;99.90;;;;;;4898319;29;20617;-73
2022/09/11 06:26:07;;;;;;;49.43;34.97;;;14.90;99.90;;;;;;4897762;29;20956;-73
2022/09/11 06:28:35;;;;;;;53.87;35.37;;;15.00;99.90;;;;;;4898028;29;20491;-73
2022/09/11 06:31:06;;;;;;;51.73;32.57;;;15.00;99.90;;;;;;4898031;29;20494;-73
2022/09/11 06:33:33;;;;;;;43.47;30.67;;;15.10;99.90;;;;;;4898312;29;20475;-72
2022/09/11 06:36:00;;;;;;;43.93;31.10;;;15.10;99.90;;;;;;4897696;29;20443;-72
2022/09/11 06:38:26;;;;;;;44.70;30.67;;;15.10;99.90;;;;;;4897929;29;20503;-73
2022/09/11 06:40:53;;;;;;;48.50;33.90;;;15.10;99.90;;;;;;4896975;29;20836;-73
2022/09/11 06:43:18;;;;;;;55.23;32.13;;;15.10;99.90;;;;;;4896925;29;20420;-72
2022/09/11 06:45:47;;;;;;;58.53;34.03;;;15.20;99.90;;;;;;4897507;29;20427;-73
2022/09/11 06:48:15;;;;;;;60.90;34.87;;;15.10;99.90;;;;;;4896803;29;20179;-73
2022/09/11 06:50:41;;;;;;;49.50;33.93;;;15.00;99.90;;;;;;4897998;29;20419;-72
2022/09/11 06:53:08;;;;;;;48.43;34.70;;;15.00;99.90;;;;;;4896766;29;20435;-76
2022/09/11 06:55:34;;;;;;;49.07;34.27;;;15.00;99.90;;;;;;4897487;29;20894;-75
2022/09/11 06:58:01;;;;;;;48.83;33.80;;;15.00;99.90;;;;;;4897924;29;20553;-75
2022/09/11 07:00:27;;;;;;;50.80;32.53;;;15.00;99.90;;;;;;4897848;29;20410;-73
2022/09/11 07:02:54;;;;;;;44.03;32.30;;;15.10;99.90;;;;;;4897859;29;20498;-73
2022/09/11 07:05:24;;;;;;;49.93;33.57;;;15.10;99.90;;;;;;4897621;29;20519;-73
2022/09/11 07:07:51;;;;;;;42.33;32.67;;;15.00;99.90;;;;;;4897884;29;20901;-72
2022/09/11 07:10:17;;;;;;;49.30;33.27;;;15.00;99.90;;;;;;4897708;29;20792;-73
2022/09/11 07:12:43;;;;;;;47.63;32.40;;;15.00;99.90;;;;;;4884423;29;20476;-73
2022/09/11 07:15:09;;;;;;;46.73;31.90;;;15.10;99.90;;;;;;4901164;29;20194;-73
2022/09/11 07:17:35;;;;;;;57.20;35.23;;;15.10;99.90;;;;;;4900058;29;20211;-73
2022/09/11 07:20:02;;;;;;;51.77;34.13;;;15.10;99.90;;;;;;4901473;29;20417;-73
2022/09/11 07:22:29;;;;;;;51.90;34.27;;;15.10;99.90;;;;;;4901606;29;20415;-73
2022/09/11 07:24:59;;;;;;;52.80;33.80;;;15.20;99.90;;;;;;4901199;29;20419;-72
2022/09/11 07:27:25;;;;;;;48.87;33.77;;;15.20;99.90;;;;;;4899907;29;20454;-72
2022/09/11 07:29:51;;;;;;;45.60;31.30;;;15.30;99.90;;;;;;4901419;29;20471;-74
2022/09/11 07:32:17;;;;;;;53.67;34.70;;;15.30;99.90;;;;;;4901401;29;20411;-72
2022/09/11 07:34:44;;;;;;;57.67;35.10;;;15.30;99.90;;;;;;4900665;29;20183;-72
2022/09/11 07:37:09;;;;;;;55.63;35.90;;;15.30;99.90;;;;;;4899701;29;20442;-71
2022/09/11 07:39:35;;;;;;;57.47;37.60;;;15.30;99.90;;;;;;4900975;29;20472;-72
2022/09/11 07:42:00;;;;;;;49.90;32.87;;;15.30;99.90;;;;;;4901050;29;20214;-72
2022/09/11 07:44:26;;;;;;;51.50;34.50;;;15.30;99.90;;;;;;4899721;29;20175;-72
2022/09/11 07:46:52;;;;;;;50.40;34.63;;;15.30;99.90;;;;;;4897654;29;20699;-72
2022/09/11 07:49:17;;;;;;;46.40;34.00;;;15.40;99.90;;;;;;4899058;29;20221;-72
2022/09/11 07:51:43;;;;;;;54.47;37.90;;;15.50;99.90;;;;;;4898335;29;20687;-71
2022/09/11 07:54:09;;;;;;;53.93;34.47;;;15.60;99.90;;;;;;4898283;29;20281;-72
2022/09/11 07:56:35;;;;;;;50.37;36.13;;;15.70;99.90;;;;;;4899020;29;20818;-71
2022/09/11 07:59:01;;;;;;;52.50;33.30;;;15.70;99.90;;;;;;4899007;29;20546;-72
2022/09/11 08:01:30;;;;;;;51.50;30.67;;;15.70;99.90;;;;;;4896889;29;20927;-71
2022/09/11 08:04:00;;;;;;;45.73;34.40;;;15.70;99.90;;;;;;4899007;29;20450;-71
2022/09/11 08:06:30;;;;;;;46.20;33.07;;;15.90;99.90;;;;;;4898870;29;20431;-72
2022/09/11 08:08:59;;;;;;;45.30;32.20;;;15.90;99.90;;;;;;4898244;29;20453;-71
2022/09/11 08:11:27;;;;;;;45.10;32.37;;;15.80;99.90;;;;;;4897752;29;20406;-70
2022/09/11 08:13:54;;;;;;;44.20;32.73;;;15.90;99.90;;;;;;4898765;29;20439;-71
2022/09/11 08:16:23;;;;;;;42.20;30.03;;;16.00;99.90;;;;;;4896431;29;20960;-72
2022/09/11 08:18:50;;;;;;;44.03;31.13;;;16.10;99.90;;;;;;4897511;29;20459;-72
2022/09/11 08:21:16;;;;;;;52.20;30.63;;;16.20;99.90;;;;;;4898402;29;20432;-72
2022/09/11 08:23:44;;;;;;;40.70;31.70;;;16.20;99.90;;;;;;4897508;29;20423;-72
2022/09/11 08:26:15;;;;;;;42.10;31.43;;;16.10;99.90;;;;;;4898108;29;20542;-72
2022/09/11 08:28:42;;;;;;;45.17;31.83;;;16.20;99.90;;;;;;4898708;29;20443;-72
2022/09/11 08:31:08;;;;;;;36.53;29.10;;;16.30;99.90;;;;;;4897639;29;20414;-73
2022/09/11 08:33:34;;;;;;;40.07;30.00;;;16.50;99.90;;;;;;4898639;29;20427;-72
2022/09/11 08:36:02;;;;;;;44.80;31.00;;;16.50;99.90;;;;;;4897790;29;20451;-72
2022/09/11 08:38:29;;;;;;;41.63;30.07;;;16.50;99.90;;;;;;4897747;29;20477;-72
2022/09/11 08:41:09;;;;;;;36.53;27.40;;;16.60;99.90;;;;;;4898292;29;20431;-73
2022/09/11 08:43:37;;;;;;;45.20;31.20;;;16.60;99.90;;;;;;4898102;29;20457;-73
2022/09/11 08:46:08;;;;;;;40.70;27.97;;;16.50;99.90;;;;;;4897422;29;20855;-72
2022/09/11 08:49:09;;;;;;;40.07;29.93;;;16.60;99.90;;;;;;4897784;29;20795;-73
2022/09/11 08:51:36;;;;;;;39.67;28.00;;;16.90;99.90;;;;;;4896627;29;20413;-73
2022/09/11 08:54:02;;;;;;;35.73;26.40;;;17.20;99.90;;;;;;4896717;29;20432;-72
2022/09/11 08:56:30;;;;;;;37.87;28.30;;;17.20;99.90;;;;;;4897070;29;20425;-72
2022/09/11 08:59:29;;;;;;;39.17;29.60;;;17.30;99.90;;;;;;4897839;29;20466;-71
2022/09/11 09:02:33;;;;;;;38.60;28.60;;;17.30;99.90;;;;;;4895809;29;20439;-72
2022/09/11 09:05:08;;;;;;;37.67;27.80;;;17.40;99.90;;;;;;4896247;29;20459;-72
2022/09/11 09:07:54;;;;;;;34.13;28.27;;;17.60;99.90;;;;;;4897418;29;20533;-72
2022/09/11 09:10:38;;;;;;;37.30;28.83;;;17.80;99.90;;;;;;4897706;29;20474;-72
2022/09/11 09:13:25;;;;;;;34.17;28.00;;;17.80;99.90;;;;;;4897817;29;20419;-73
2022/09/11 09:16:04;;;;;;;35.90;25.90;;;17.90;99.90;;;;;;4896743;29;20959;-71
2022/09/11 09:18:51;;;;;;;31.13;24.37;;;17.80;99.90;;;;;;4897475;29;21006;-72
2022/09/11 09:21:38;;;;;;;32.20;24.80;;;18.30;99.90;;;;;;4897957;29;20431;-73
2022/09/11 09:24:18;;;;;;;31.00;25.40;;;18.70;99.90;;;;;;4896942;29;20417;-71
2022/09/11 09:26:48;;;;;;;31.97;24.37;;;18.40;99.90;;;;;;4897029;29;20812;-72
2022/09/11 09:29:19;;;;;;;33.47;24.90;;;18.60;99.90;;;;;;4897777;29;20449;-72
2022/09/11 09:31:46;;;;;;;28.60;22.30;;;18.80;99.90;;;;;;4896685;29;20394;-72
2022/09/11 09:34:19;;;;;;;28.90;19.37;;;18.70;99.90;;;;;;4896760;29;20431;-73
2022/09/11 09:37:22;;;;;;;23.43;19.63;;;18.80;99.90;;;;;;4896826;29;20451;-73
2022/09/11 09:39:49;;;;;;;25.90;17.97;;;18.90;99.90;;;;;;4897101;29;20459;-72
2022/09/11 09:42:34;;;;;;;20.63;17.30;;;19.00;99.90;;;;;;4896503;29;20431;-71
2022/09/11 09:45:00;;;;;;;22.53;19.30;;;18.80;99.90;;;;;;4896171;29;20426;-71
2022/09/11 09:47:26;;;;;;;22.37;18.23;;;18.80;99.90;;;;;;4897416;29;20410;-72
2022/09/11 09:49:51;;;;;;;24.50;18.70;;;19.00;99.90;;;;;;4896984;29;20431;-71
2022/09/11 09:52:23;;;;;;;32.73;20.53;;;19.00;99.90;;;;;;4895626;29;20823;-71
2022/09/11 09:54:58;;;;;;;24.90;20.90;;;19.00;99.90;;;;;;4896778;29;20210;-73
2022/09/11 09:57:29;;;;;;;27.33;20.57;;;19.20;99.90;;;;;;4896842;29;20533;-72
2022/09/11 10:00:03;;;;;;;27.40;21.53;;;19.20;99.90;;;;;;4896084;29;20969;-72
2022/09/11 10:02:40;;;;;;;28.83;21.27;;;19.20;99.90;;;;;;4897532;29;20483;-73
2022/09/11 10:05:15;;;;;;;31.77;22.80;;;19.50;99.90;;;;;;4898202;29;20411;-73
2022/09/11 10:07:50;;;;;;;24.10;19.53;;;19.40;99.90;;;;;;4898002;29;20826;-73
2022/09/11 10:10:21;;;;;;;23.80;19.90;;;19.40;99.90;;;;;;4898383;29;20410;-73
2022/09/11 10:12:47;;;;;;;25.23;20.80;;;19.60;99.90;;;;;;4898279;29;20386;-73
2022/09/11 10:15:24;;;;;;;24.57;19.77;;;19.90;99.90;;;;;;4898061;29;20765;-72
2022/09/11 10:17:51;;;;;;;25.40;19.50;;;19.90;99.90;;;;;;4896820;29;20430;-75
2022/09/11 10:20:24;;;;;;;22.40;19.40;;;20.00;99.90;;;;;;4898301;29;20400;-74
2022/09/11 10:22:51;;;;;;;20.13;17.57;;;20.10;99.90;;;;;;4898460;29;20389;-72
2022/09/11 10:25:26;;;;;;;22.03;19.30;;;20.20;99.90;;;;;;4898173;29;20393;-75
2022/09/11 10:28:05;;;;;;;23.03;18.80;;;20.40;99.90;;;;;;4898138;29;20796;-75
2022/09/11 10:30:39;;;;;;;21.80;19.10;;;20.50;99.90;;;;;;4898343;29;20463;-75
2022/09/11 10:33:50;;;;;;;21.87;19.53;;;20.50;99.90;;;;;;4898231;29;20421;-75
2022/09/11 10:36:21;;;;;;;24.40;19.30;;;20.80;99.90;;;;;;4866475;29;20514;-75
2022/09/11 10:38:48;;;;;;;23.77;21.27;;;20.70;99.90;;;;;;4898062;29;20537;-74
2022/09/11 10:41:13;;;;;;;24.30;19.53;;;20.60;99.90;;;;;;4881489;29;20415;-75
2022/09/11 10:43:57;;;;;;;19.83;17.73;;;20.60;99.90;;;;;;4898332;29;20889;-75
2022/09/11 10:46:28;;;;;;;21.90;17.90;;;21.50;99.90;;;;;;4899488;29;20198;-75
2022/09/11 10:48:57;;;;;;;19.40;16.70;;;21.80;99.90;;;;;;4902236;29;20836;-76
2022/09/11 10:51:25;;;;;;;19.80;15.30;;;21.80;99.90;;;;;;4901986;29;20467;-75
2022/09/11 10:54:03;;;;;;;20.30;16.10;;;22.10;99.90;;;;;;4901685;29;20470;-75
2022/09/11 10:56:31;;;;;;;19.30;16.20;;;22.40;99.90;;;;;;4901725;29;20416;-75
2022/09/11 10:59:04;;;;;;;21.13;16.00;;;22.80;99.90;;;;;;4901724;29;20481;-75
2022/09/11 11:01:29;;;;;;;18.13;16.20;;;22.60;99.90;;;;;;4901864;29;20415;-75
2022/09/11 11:03:55;;;;;;;20.10;16.60;;;22.60;99.90;;;;;;4901412;29;20482;-74
2022/09/11 11:06:41;;;;;;;18.23;15.27;;;22.50;99.90;;;;;;4901561;29;20207;-76
2022/09/11 11:09:32;;;;;;;16.03;14.00;;;22.50;99.90;;;;;;4884763;29;20732;-75
2022/09/11 11:12:11;;;;;;;17.93;14.57;;;22.50;99.90;;;;;;4899322;29;20431;-74
2022/09/11 11:15:04;;;;;;;14.47;12.60;;;22.40;99.90;;;;;;4901119;29;20419;-75
2022/09/11 11:17:39;;;;;;;16.93;14.57;;;22.90;99.90;;;;;;4900780;29;20443;-73
2022/09/11 11:20:20;;;;;;;15.90;13.43;;;23.40;99.90;;;;;;4899677;29;20784;-72
2022/09/11 11:23:08;;;;;;;16.90;14.53;;;23.80;99.90;;;;;;4898903;29;20831;-73
2022/09/11 11:25:42;;;;;;;18.60;14.10;;;24.00;99.90;;;;;;4899301;29;20538;-73
2022/09/11 11:28:34;;;;;;;16.23;14.53;;;24.30;99.90;;;;;;4899922;29;20439;-74
2022/09/11 11:31:26;;;;;;;15.87;14.10;;;24.20;99.90;;;;;;4899127;29;20433;-73
2022/09/11 11:34:02;;;;;;;14.20;12.50;;;24.30;99.90;;;;;;4897645;29;20584;-74
2022/09/11 11:36:51;;;;;;;15.33;13.47;;;24.30;99.90;;;;;;4899582;29;20533;-74
2022/09/11 11:39:16;;;;;;;16.40;13.47;;;24.60;99.90;;;;;;4898972;29;20462;-74
2022/09/11 11:41:47;;;;;;;15.93;14.37;;;25.30;99.90;;;;;;4898089;29;20535;-75
2022/09/11 11:44:26;;;;;;;19.23;16.27;;;25.30;99.90;;;;;;4899453;29;20219;-73
2022/09/11 11:47:01;;;;;;;13.20;11.80;;;24.90;99.90;;;;;;4897495;29;20800;-74
2022/09/11 11:49:40;;;;;;;14.37;12.60;;;24.90;99.90;;;;;;4899704;29;20426;-74
2022/09/11 11:52:32;;;;;;;13.30;11.90;;;25.20;99.90;;;;;;4899092;29;20427;-75
2022/09/11 11:55:22;;;;;;;12.10;10.80;;;24.60;99.90;;;;;;4898729;29;20434;-75
2022/09/11 11:58:05;;;;;;;11.13;8.87;;;25.20;99.90;;;;;;4898264;29;20443;-75
2022/09/11 12:00:38;;;;;;;10.93;9.77;;;23.90;99.90;;;;;;4898613;29;20422;-73
2022/09/11 12:03:20;;;;;;;11.77;10.50;;;23.90;99.90;;;;;;4882160;29;21047;-73
2022/09/11 12:05:46;;;;;;;12.13;10.07;;;23.60;99.90;;;;;;4899131;29;20530;-73
2022/09/11 12:08:15;;;;;;;12.40;10.53;;;24.00;99.90;;;;;;4898033;29;20557;-74
2022/09/11 12:11:06;;;;;;;11.70;10.30;;;24.30;99.90;;;;;;4898801;29;20194;-72
2022/09/11 12:13:35;;;;;;;10.93;9.83;;;24.50;99.90;;;;;;4898917;29;21031;-74
2022/09/11 12:16:47;;;;;;;13.10;10.10;;;24.30;99.90;;;;;;4897990;29;20823;-74
2022/09/11 12:19:18;;;;;;;11.23;10.10;;;24.50;99.90;;;;;;4878014;29;20897;-74
2022/09/11 12:21:53;;;;;;;10.10;9.20;;;24.30;99.90;;;;;;4894747;29;20522;-74
2022/09/11 12:24:21;;;;;;;10.47;8.83;;;24.20;99.90;;;;;;4898612;29;20462;-74
2022/09/11 12:27:26;;;;;;;14.10;8.67;;;23.90;99.90;;;;;;4898902;29;20447;-75
2022/09/11 12:29:56;;;;;;;10.53;9.43;;;24.00;99.90;;;;;;4897710;29;20449;-75
2022/09/11 12:32:27;;;;;;;10.90;9.80;;;24.00;99.90;;;;;;4899894;29;20418;-75
2022/09/11 12:35:00;;;;;;;9.83;8.07;;;23.90;99.90;;;;;;4899581;29;20400;-74
2022/09/11 12:37:34;;;;;;;11.50;7.90;;;23.70;99.90;;;;;;4899854;29;20955;-74
2022/09/11 12:40:15;;;;;;;7.73;6.43;;;24.00;99.90;;;;;;4899882;29;20462;-75
2022/09/11 12:42:41;;;;;;;9.70;6.77;;;24.50;99.90;;;;;;4899980;29;20773;-74
2022/09/11 12:45:33;;;;;;;8.53;7.73;;;24.90;99.90;;;;;;4899556;29;20422;-75
2022/09/11 12:48:08;;;;;;;8.10;6.50;;;25.30;99.90;;;;;;4899921;29;20186;-75
2022/09/11 12:50:34;;;;;;;6.20;5.63;;;25.00;99.90;;;;;;4899984;29;20399;-75
2022/09/11 12:53:03;;;;;;;5.83;5.30;;;24.80;99.90;;;;;;4899705;29;20447;-74